Time;durP1;ratioP1;P1;durP2;ratioP2;P2;SDS_P1;SDS_P2;PMS_P1;PMS_P2;Temp;Humidity;BMP_temperature;BMP_pressure;BME280_temperature;BME280_humidity;BME280_pressure;Samples;Min_cycle;Max_cycle;Signal;HPM_P1;HPM_P2
2023/09/09 00:01:35;;;;;;;18.30;14.05;;;;;;;;;;5108065;28;20043;-65
2023/09/09 00:04:04;;;;;;;19.90;14.55;;;;;;;;;;5085663;28;20052;-65
2023/09/09 00:06:31;;;;;;;20.23;14.35;;;;;;;;;;5106811;27;20491;-65
2023/09/09 00:08:58;;;;;;;19.20;13.93;;;;;;;;;;5107816;28;20070;-65
2023/09/09 00:11:25;;;;;;;18.63;14.52;;;;;;;;;;5106604;28;20043;-65
2023/09/09 00:13:53;;;;;;;21.13;15.10;;;;;;;;;;5092814;28;20047;-65
2023/09/09 00:16:20;;;;;;;17.73;13.20;;;;;;;;;;5085263;28;20499;-65
2023/09/09 00:18:49;;;;;;;17.70;13.13;;;;;;;;;;5105051;28;20062;-65
2023/09/09 00:21:16;;;;;;;16.63;12.63;;;;;;;;;;5104516;28;20052;-66
2023/09/09 00:23:43;;;;;;;19.10;14.02;;;;;;;;;;5103448;28;20051;-65
2023/09/09 00:26:10;;;;;;;18.00;14.00;;;;;;;;;;5102147;28;20464;-66
2023/09/09 00:28:38;;;;;;;18.20;13.00;;;;;;;;;;5081248;28;20062;-65
2023/09/09 00:31:05;;;;;;;16.77;12.60;;;;;;;;;;5102584;28;20759;-65
2023/09/09 00:33:32;;;;;;;18.05;12.30;;;;;;;;;;5108025;28;20052;-65
2023/09/09 00:36:02;;;;;;;15.32;11.05;;;;;;;;;;5108715;28;20480;-65
2023/09/09 00:38:30;;;;;;;12.13;9.23;;;;;;;;;;5106865;28;20054;-65
2023/09/09 00:41:13;;;;;;;9.82;7.70;;;;;;;;;;5101321;28;20518;-65
2023/09/09 00:43:41;;;;;;;9.90;7.82;;;;;;;;;;5104930;28;20058;-65
2023/09/09 00:46:09;;;;;;;7.80;6.85;;;;;;;;;;5108367;28;20055;-66
2023/09/09 00:48:36;;;;;;;8.13;6.53;;;;;;;;;;5106870;28;20051;-65
2023/09/09 00:51:05;;;;;;;8.30;6.35;;;;;;;;;;5087283;28;20043;-66
2023/09/09 00:53:33;;;;;;;8.57;5.63;;;;;;;;;;5108662;28;20066;-65
2023/09/09 00:56:02;;;;;;;10.50;6.10;;;;;;;;;;5103301;28;20057;-65
2023/09/09 00:58:31;;;;;;;7.90;6.05;;;;;;;;;;5110612;28;20131;-65
2023/09/09 01:00:59;;;;;;;5.78;4.82;;;;;;;;;;5080721;28;20050;-65
2023/09/09 01:03:26;;;;;;;6.30;4.47;;;;;;;;;;5100321;27;20047;-65
2023/09/09 01:05:56;;;;;;;7.40;5.13;;;;;;;;;;5104205;27;20043;-66
2023/09/09 01:08:27;;;;;;;11.13;5.85;;;;;;;;;;5107614;27;20106;-65
2023/09/09 01:10:54;;;;;;;8.13;6.03;;;;;;;;;;5108647;28;20054;-65
2023/09/09 01:13:22;;;;;;;6.75;5.85;;;;;;;;;;5112006;27;20047;-65
2023/09/09 01:15:49;;;;;;;6.13;5.10;;;;;;;;;;5114112;27;20069;-65
2023/09/09 01:18:17;;;;;;;5.90;4.25;;;;;;;;;;5106520;27;20419;-67
2023/09/09 01:20:46;;;;;;;6.88;4.50;;;;;;;;;;5104283;27;20097;-65
2023/09/09 01:23:15;;;;;;;8.15;5.88;;;;;;;;;;5112079;27;20047;-65
2023/09/09 01:25:42;;;;;;;7.57;5.90;;;;;;;;;;5108092;28;20067;-65
2023/09/09 01:28:10;;;;;;;10.18;6.00;;;;;;;;;;5105503;28;20491;-65
2023/09/09 01:30:37;;;;;;;9.32;6.15;;;;;;;;;;5113345;28;20556;-65
2023/09/09 01:33:04;;;;;;;7.50;6.03;;;;;;;;;;5105277;28;20043;-65
2023/09/09 01:35:32;;;;;;;12.38;7.45;;;;;;;;;;5098738;27;20491;-65
2023/09/09 01:37:59;;;;;;;10.13;7.18;;;;;;;;;;5105989;28;20104;-65
2023/09/09 01:40:28;;;;;;;9.68;7.50;;;;;;;;;;5106469;27;20052;-65
2023/09/09 01:42:55;;;;;;;12.98;7.45;;;;;;;;;;5106211;28;20044;-65
2023/09/09 01:45:22;;;;;;;12.23;9.13;;;;;;;;;;5107172;27;20044;-65
2023/09/09 01:47:49;;;;;;;16.95;10.95;;;;;;;;;;5109806;28;20470;-65
2023/09/09 01:50:17;;;;;;;13.45;9.88;;;;;;;;;;5111717;28;20054;-65
2023/09/09 01:52:44;;;;;;;14.77;10.43;;;;;;;;;;5107947;27;20043;-66
2023/09/09 01:55:11;;;;;;;15.15;11.02;;;;;;;;;;5109660;27;20040;-65
2023/09/09 01:57:40;;;;;;;16.40;11.48;;;;;;;;;;5104736;28;20426;-66
2023/09/09 02:00:08;;;;;;;16.73;11.10;;;;;;;;;;5109550;28;20487;-65
2023/09/09 02:02:35;;;;;;;18.60;12.52;;;;;;;;;;5103755;28;20052;-65
2023/09/09 02:05:02;;;;;;;14.75;11.65;;;;;;;;;;5106466;28;20043;-65
2023/09/09 02:07:29;;;;;;;19.17;12.93;;;;;;;;;;5103902;28;20043;-65
2023/09/09 02:09:57;;;;;;;19.17;12.63;;;;;;;;;;5106368;28;20491;-65
2023/09/09 02:12:24;;;;;;;18.55;12.52;;;;;;;;;;5105629;27;20047;-65
2023/09/09 02:14:52;;;;;;;18.42;12.02;;;;;;;;;;5104938;28;20066;-65
2023/09/09 02:17:20;;;;;;;16.77;12.68;;;;;;;;;;5109343;28;20065;-65
2023/09/09 02:19:47;;;;;;;15.55;11.75;;;;;;;;;;5112297;27;20058;-65
2023/09/09 02:22:14;;;;;;;17.08;11.82;;;;;;;;;;5106853;27;20115;-65
2023/09/09 02:24:41;;;;;;;16.88;11.27;;;;;;;;;;5104267;27;20051;-65
2023/09/09 02:27:09;;;;;;;18.05;12.50;;;;;;;;;;5103436;27;20398;-65
2023/09/09 02:29:36;;;;;;;16.95;12.65;;;;;;;;;;5101813;28;20058;-65
2023/09/09 02:32:05;;;;;;;16.35;12.32;;;;;;;;;;5111455;28;20054;-65
2023/09/09 02:34:32;;;;;;;16.65;11.73;;;;;;;;;;5099550;28;20071;-65
2023/09/09 02:37:16;;;;;;;15.45;11.40;;;;;;;;;;5105062;27;20051;-65
2023/09/09 02:39:44;;;;;;;15.18;9.90;;;;;;;;;;5100774;27;20059;-65
2023/09/09 02:42:12;;;;;;;18.50;11.27;;;;;;;;;;5102034;27;20047;-64
2023/09/09 02:44:40;;;;;;;15.65;11.35;;;;;;;;;;5103275;28;20070;-65
2023/09/09 02:47:09;;;;;;;16.48;11.38;;;;;;;;;;5091662;28;20047;-65
2023/09/09 02:49:36;;;;;;;14.50;10.95;;;;;;;;;;5104166;27;20074;-65
2023/09/09 02:52:04;;;;;;;18.75;11.38;;;;;;;;;;5106758;27;20375;-65
2023/09/09 02:54:31;;;;;;;15.95;11.18;;;;;;;;;;5103459;28;20055;-65
2023/09/09 02:56:58;;;;;;;16.98;12.60;;;;;;;;;;5106439;28;20048;-65
2023/09/09 02:59:26;;;;;;;16.60;11.68;;;;;;;;;;5102660;28;20043;-64
2023/09/09 03:01:53;;;;;;;17.67;12.55;;;;;;;;;;5103812;28;20513;-65
2023/09/09 03:04:22;;;;;;;16.60;12.07;;;;;;;;;;5105218;27;20043;-65
2023/09/09 03:06:49;;;;;;;19.80;11.88;;;;;;;;;;5104975;28;20062;-65
2023/09/09 03:09:16;;;;;;;20.88;12.73;;;;;;;;;;5100917;28;20047;-64
2023/09/09 03:11:43;;;;;;;20.20;13.27;;;;;;;;;;5104561;28;20063;-65
2023/09/09 03:14:11;;;;;;;19.25;14.85;;;;;;;;;;5099038;27;20054;-65
2023/09/09 03:16:38;;;;;;;22.80;15.07;;;;;;;;;;5102803;28;20127;-65
2023/09/09 03:19:06;;;;;;;20.23;15.00;;;;;;;;;;5109562;27;20043;-65
2023/09/09 03:21:34;;;;;;;24.58;15.75;;;;;;;;;;5089919;28;20047;-65
2023/09/09 03:24:02;;;;;;;22.65;16.02;;;;;;;;;;5108195;28;20070;-65
2023/09/09 03:26:31;;;;;;;23.52;16.20;;;;;;;;;;5100459;28;20043;-65
2023/09/09 03:28:59;;;;;;;23.90;15.88;;;;;;;;;;5103046;28;20555;-65
2023/09/09 03:31:26;;;;;;;23.60;16.25;;;;;;;;;;5081995;28;20043;-65
2023/09/09 03:33:53;;;;;;;25.08;17.75;;;;;;;;;;5080897;28;20500;-65
2023/09/09 03:36:21;;;;;;;23.98;17.00;;;;;;;;;;5098081;28;20066;-65
2023/09/09 03:38:49;;;;;;;20.10;14.10;;;;;;;;;;5102252;28;20044;-65
2023/09/09 03:41:16;;;;;;;18.60;13.07;;;;;;;;;;5103803;28;20054;-64
2023/09/09 03:43:44;;;;;;;15.82;12.18;;;;;;;;;;5090502;28;20051;-65
2023/09/09 03:46:11;;;;;;;12.57;9.63;;;;;;;;;;5089828;28;20077;-65
2023/09/09 03:48:38;;;;;;;15.57;9.52;;;;;;;;;;5104362;28;20055;-65
2023/09/09 03:51:05;;;;;;;10.88;8.35;;;;;;;;;;5104800;28;20052;-65
2023/09/09 03:53:32;;;;;;;9.10;6.88;;;;;;;;;;5107115;28;20048;-65
2023/09/09 03:56:01;;;;;;;8.63;6.53;;;;;;;;;;5106737;27;20487;-65
2023/09/09 03:58:29;;;;;;;9.13;6.70;;;;;;;;;;5089135;28;20054;-64
2023/09/09 04:01:06;;;;;;;11.02;7.35;;;;;;;;;;5101392;27;20067;-65
2023/09/09 04:03:34;;;;;;;11.48;8.13;;;;;;;;;;5103817;28;20093;-64
2023/09/09 04:06:03;;;;;;;12.70;9.02;;;;;;;;;;5103722;27;20040;-65
2023/09/09 04:08:31;;;;;;;17.17;9.27;;;;;;;;;;5083723;28;20058;-65
2023/09/09 04:10:58;;;;;;;9.60;7.60;;;;;;;;;;5105192;28;20044;-64
2023/09/09 04:13:27;;;;;;;9.75;7.57;;;;;;;;;;5101006;28;20047;-65
2023/09/09 04:15:55;;;;;;;11.35;8.35;;;;;;;;;;5107453;28;20043;-64
2023/09/09 04:18:22;;;;;;;11.05;7.65;;;;;;;;;;5102151;28;20414;-65
2023/09/09 04:20:49;;;;;;;10.23;7.55;;;;;;;;;;5098777;28;20449;-65
2023/09/09 04:23:17;;;;;;;9.20;7.75;;;;;;;;;;5104116;28;20047;-65
2023/09/09 04:25:44;;;;;;;10.30;7.60;;;;;;;;;;5106487;28;20146;-65
2023/09/09 04:28:12;;;;;;;9.02;6.60;;;;;;;;;;5104487;28;20044;-65
2023/09/09 04:30:41;;;;;;;7.28;6.50;;;;;;;;;;5107995;28;20052;-65
2023/09/09 04:33:11;;;;;;;8.65;6.40;;;;;;;;;;5104207;28;20453;-65
2023/09/09 04:35:38;;;;;;;7.80;6.85;;;;;;;;;;5096731;28;20051;-65
2023/09/09 04:38:06;;;;;;;9.15;6.60;;;;;;;;;;5106180;28;20131;-65
2023/09/09 04:40:33;;;;;;;8.30;6.60;;;;;;;;;;5109105;28;20051;-65
2023/09/09 04:43:00;;;;;;;8.00;6.72;;;;;;;;;;5111709;28;20040;-64
2023/09/09 04:45:27;;;;;;;8.57;7.32;;;;;;;;;;5107883;27;20058;-64
2023/09/09 04:47:56;;;;;;;9.30;6.88;;;;;;;;;;5086683;27;20047;-65
2023/09/09 04:50:23;;;;;;;10.25;8.10;;;;;;;;;;5105896;28;20048;-64
2023/09/09 04:52:50;;;;;;;8.98;7.57;;;;;;;;;;5107768;27;20494;-65
2023/09/09 04:55:18;;;;;;;10.00;8.13;;;;;;;;;;5106554;27;20047;-64
2023/09/09 04:57:45;;;;;;;10.82;7.85;;;;;;;;;;5108014;28;20051;-64
2023/09/09 05:00:13;;;;;;;11.98;8.95;;;;;;;;;;5111305;27;20057;-65
2023/09/09 05:02:40;;;;;;;10.45;8.90;;;;;;;;;;5106135;28;20040;-66
2023/09/09 05:05:09;;;;;;;12.25;8.82;;;;;;;;;;5098396;27;20050;-64
2023/09/09 05:07:37;;;;;;;16.98;11.30;;;;;;;;;;5101065;28;20491;-64
2023/09/09 05:10:05;;;;;;;16.10;10.35;;;;;;;;;;5103291;27;20587;-64
2023/09/09 05:12:32;;;;;;;15.57;11.68;;;;;;;;;;5111094;27;20048;-65
2023/09/09 05:15:00;;;;;;;20.08;13.90;;;;;;;;;;5103635;28;20047;-65
2023/09/09 05:17:27;;;;;;;19.75;14.77;;;;;;;;;;5105768;27;20052;-65
2023/09/09 05:19:54;;;;;;;26.70;14.90;;;;;;;;;;5104992;27;20036;-64
2023/09/09 05:22:23;;;;;;;20.17;15.10;;;;;;;;;;5117371;27;20043;-64
2023/09/09 05:24:50;;;;;;;30.17;18.13;;;;;;;;;;5112540;27;20044;-64
2023/09/09 05:27:17;;;;;;;25.00;18.30;;;;;;;;;;5110402;28;20486;-65
2023/09/09 05:29:44;;;;;;;26.52;18.63;;;;;;;;;;5097061;27;20043;-64
2023/09/09 05:32:12;;;;;;;27.27;18.55;;;;;;;;;;5106903;28;20040;-64
2023/09/09 05:34:39;;;;;;;24.52;17.52;;;;;;;;;;5105319;28;20047;-64
2023/09/09 05:37:06;;;;;;;25.58;18.90;;;;;;;;;;5112216;28;20054;-65
2023/09/09 05:39:35;;;;;;;26.83;18.17;;;;;;;;;;5109894;28;20089;-64
2023/09/09 05:42:05;;;;;;;25.02;18.23;;;;;;;;;;5104976;28;20039;-64
2023/09/09 05:44:32;;;;;;;23.58;17.25;;;;;;;;;;5100210;28;20052;-65
2023/09/09 05:46:59;;;;;;;24.17;18.20;;;;;;;;;;5087808;28;20039;-64
2023/09/09 05:49:27;;;;;;;26.30;20.52;;;;;;;;;;5102817;27;20051;-65
2023/09/09 05:51:54;;;;;;;29.23;20.70;;;;;;;;;;5101732;27;20055;-65
2023/09/09 05:54:21;;;;;;;26.25;19.30;;;;;;;;;;5104695;28;20044;-64
2023/09/09 05:56:50;;;;;;;28.35;20.65;;;;;;;;;;5103517;27;20052;-64
2023/09/09 05:59:17;;;;;;;31.02;21.17;;;;;;;;;;5083574;28;20043;-64
2023/09/09 06:01:44;;;;;;;28.33;20.05;;;;;;;;;;5103599;27;20046;-65
2023/09/09 06:04:11;;;;;;;31.02;22.40;;;;;;;;;;5097566;28;20491;-64
2023/09/09 06:06:39;;;;;;;29.58;21.13;;;;;;;;;;5098263;28;20798;-65
2023/09/09 06:09:06;;;;;;;29.15;21.55;;;;;;;;;;5088881;28;20055;-64
2023/09/09 06:11:33;;;;;;;28.02;21.40;;;;;;;;;;5099604;27;20075;-64
2023/09/09 06:14:02;;;;;;;24.55;20.17;;;;;;;;;;5112236;28;20130;-65
2023/09/09 06:16:29;;;;;;;26.05;20.02;;;;;;;;;;5084363;27;20060;-64
2023/09/09 06:18:56;;;;;;;24.27;20.52;;;;;;;;;;5105293;28;20043;-65
2023/09/09 06:21:24;;;;;;;26.85;19.63;;;;;;;;;;5086134;28;20047;-65
2023/09/09 06:23:51;;;;;;;27.48;21.40;;;;;;;;;;5104715;28;20130;-64
2023/09/09 06:26:18;;;;;;;31.48;22.50;;;;;;;;;;5108809;27;20050;-64
2023/09/09 06:28:45;;;;;;;32.03;23.70;;;;;;;;;;5102696;28;20517;-64
2023/09/09 06:31:14;;;;;;;30.98;22.95;;;;;;;;;;5104006;27;20159;-64
2023/09/09 06:33:41;;;;;;;33.05;24.08;;;;;;;;;;5107188;28;20047;-65
2023/09/09 06:36:08;;;;;;;32.42;25.42;;;;;;;;;;5108873;27;20129;-64
2023/09/09 06:38:36;;;;;;;27.67;22.90;;;;;;;;;;5109264;27;20044;-64
2023/09/09 06:41:03;;;;;;;36.45;26.75;;;;;;;;;;5102432;28;20043;-65
2023/09/09 06:43:30;;;;;;;35.13;26.60;;;;;;;;;;5111727;28;20048;-64
2023/09/09 06:45:59;;;;;;;41.50;28.48;;;;;;;;;;5105782;28;20047;-65
2023/09/09 06:48:30;;;;;;;46.20;30.02;;;;;;;;;;5095984;28;20043;-65
2023/09/09 06:50:57;;;;;;;54.65;33.30;;;;;;;;;;5107658;27;20044;-65
2023/09/09 06:53:25;;;;;;;62.58;36.95;;;;;;;;;;5110582;27;20036;-65
2023/09/09 06:55:52;;;;;;;69.28;39.53;;;;;;;;;;5108870;28;20066;-65
2023/09/09 06:58:20;;;;;;;62.92;39.42;;;;;;;;;;5108316;27;20475;-65
2023/09/09 07:00:50;;;;;;;65.85;40.53;;;;;;;;;;5107917;27;20488;-65
2023/09/09 07:03:18;;;;;;;67.38;41.50;;;;;;;;;;5105251;28;20040;-64
2023/09/09 07:05:46;;;;;;;72.97;43.67;;;;;;;;;;5087629;28;20052;-65
2023/09/09 07:08:13;;;;;;;79.18;45.33;;;;;;;;;;5109731;28;20047;-65
2023/09/09 07:10:41;;;;;;;77.68;44.35;;;;;;;;;;5111862;27;20059;-65
2023/09/09 07:13:08;;;;;;;81.40;47.90;;;;;;;;;;5110676;28;20047;-65
2023/09/09 07:15:37;;;;;;;81.80;47.80;;;;;;;;;;5110557;27;20054;-65
2023/09/09 07:18:04;;;;;;;96.53;54.60;;;;;;;;;;5105007;27;20383;-65
2023/09/09 07:20:32;;;;;;;108.22;59.55;;;;;;;;;;5107431;27;20044;-65
2023/09/09 07:23:00;;;;;;;118.35;64.30;;;;;;;;;;5098460;27;20490;-65
2023/09/09 07:25:27;;;;;;;115.25;63.05;;;;;;;;;;5101456;28;20540;-65
2023/09/09 07:27:55;;;;;;;117.30;64.30;;;;;;;;;;5108270;27;20047;-65
2023/09/09 07:30:22;;;;;;;113.78;63.80;;;;;;;;;;5111505;27;20051;-65
2023/09/09 07:32:49;;;;;;;102.30;59.25;;;;;;;;;;5095602;28;20055;-65
2023/09/09 07:35:16;;;;;;;99.10;57.47;;;;;;;;;;5106400;27;20051;-65
2023/09/09 07:37:44;;;;;;;92.75;56.25;;;;;;;;;;5111809;27;20058;-64
2023/09/09 07:40:13;;;;;;;80.43;47.83;;;;;;;;;;5097290;28;20083;-65
2023/09/09 07:42:40;;;;;;;70.68;42.45;;;;;;;;;;5087562;28;20056;-65
2023/09/09 07:45:08;;;;;;;66.75;41.85;;;;;;;;;;5102955;28;20036;-65
2023/09/09 07:47:35;;;;;;;67.50;41.38;;;;;;;;;;5104612;27;20047;-65
2023/09/09 07:50:03;;;;;;;65.10;40.58;;;;;;;;;;5090814;28;20048;-65
2023/09/09 07:52:30;;;;;;;69.38;41.58;;;;;;;;;;5107846;27;20505;-65
2023/09/09 07:54:57;;;;;;;64.60;39.40;;;;;;;;;;5106025;28;20052;-65
2023/09/09 07:57:26;;;;;;;61.45;38.40;;;;;;;;;;5107136;27;20521;-65
2023/09/09 07:59:53;;;;;;;64.90;38.58;;;;;;;;;;5105799;28;20471;-65
2023/09/09 08:02:20;;;;;;;61.92;37.78;;;;;;;;;;5099256;27;20043;-65
2023/09/09 08:04:48;;;;;;;61.25;37.80;;;;;;;;;;5105433;28;20406;-65
2023/09/09 08:07:15;;;;;;;52.03;32.38;;;;;;;;;;5107085;28;20084;-65
2023/09/09 08:09:42;;;;;;;47.80;32.05;;;;;;;;;;5102206;27;20039;-65
2023/09/09 08:12:09;;;;;;;51.30;31.60;;;;;;;;;;5088261;28;20051;-65
2023/09/09 08:14:38;;;;;;;49.95;31.77;;;;;;;;;;5105908;27;20043;-65
2023/09/09 08:17:05;;;;;;;54.47;29.58;;;;;;;;;;5101606;27;20147;-65
2023/09/09 08:19:33;;;;;;;48.15;31.27;;;;;;;;;;5106960;27;20047;-65
2023/09/09 08:22:00;;;;;;;43.80;26.00;;;;;;;;;;5108746;27;20046;-65
2023/09/09 08:24:27;;;;;;;38.70;25.15;;;;;;;;;;5107243;28;20045;-65
2023/09/09 08:26:54;;;;;;;37.25;24.67;;;;;;;;;;5107394;28;20048;-65
2023/09/09 08:29:22;;;;;;;34.85;22.65;;;;;;;;;;5107775;28;20047;-65
2023/09/09 08:31:50;;;;;;;30.58;20.13;;;;;;;;;;5108881;28;20051;-65
2023/09/09 08:34:18;;;;;;;30.98;19.95;;;;;;;;;;5109066;28;20371;-65
2023/09/09 08:36:45;;;;;;;29.55;20.70;;;;;;;;;;5109567;28;20222;-65
2023/09/09 08:39:13;;;;;;;28.52;20.30;;;;;;;;;;5103142;28;20044;-65
2023/09/09 08:41:45;;;;;;;31.48;21.48;;;;;;;;;;5108643;28;20051;-66
2023/09/09 08:44:16;;;;;;;26.00;17.55;;;;;;;;;;5104785;28;20050;-65
2023/09/09 08:46:43;;;;;;;25.02;16.65;;;;;;;;;;5099457;28;20052;-65
2023/09/09 08:49:14;;;;;;;27.45;18.63;;;;;;;;;;5109531;28;20047;-65
2023/09/09 08:51:44;;;;;;;26.25;16.73;;;;;;;;;;5110866;28;20051;-65
2023/09/09 08:54:12;;;;;;;29.85;17.80;;;;;;;;;;5105920;28;20051;-65
2023/09/09 08:56:40;;;;;;;21.40;14.93;;;;;;;;;;5100874;28;20051;-65
2023/09/09 08:59:08;;;;;;;21.10;14.02;;;;;;;;;;5103860;28;20044;-65
2023/09/09 09:01:36;;;;;;;22.52;14.68;;;;;;;;;;5085454;28;20079;-65
2023/09/09 09:04:03;;;;;;;20.65;13.45;;;;;;;;;;5109284;28;20490;-65
2023/09/09 09:06:32;;;;;;;18.75;12.98;;;;;;;;;;5082400;28;20052;-65
2023/09/09 09:08:59;;;;;;;15.68;11.35;;;;;;;;;;5103757;28;20048;-65
2023/09/09 09:11:26;;;;;;;17.33;12.27;;;;;;;;;;5104458;28;20048;-65
2023/09/09 09:13:54;;;;;;;18.50;12.70;;;;;;;;;;5106166;28;20044;-66
2023/09/09 09:16:22;;;;;;;16.73;11.40;;;;;;;;;;5107074;28;20055;-65
2023/09/09 09:18:49;;;;;;;18.55;12.50;;;;;;;;;;5101812;28;20556;-65
2023/09/09 09:21:17;;;;;;;17.08;12.40;;;;;;;;;;5108163;28;20054;-65
2023/09/09 09:23:45;;;;;;;18.35;11.95;;;;;;;;;;5112130;28;20409;-65
2023/09/09 09:26:25;;;;;;;16.95;11.65;;;;;;;;;;5109841;28;20054;-65
2023/09/09 09:28:53;;;;;;;16.17;10.82;;;;;;;;;;5105523;27;20051;-65
2023/09/09 09:31:21;;;;;;;15.40;11.60;;;;;;;;;;5115214;27;20063;-65
2023/09/09 09:33:48;;;;;;;13.93;10.18;;;;;;;;;;5113292;28;20490;-66
2023/09/09 09:36:17;;;;;;;12.73;9.38;;;;;;;;;;5098095;28;20438;-65
2023/09/09 09:38:46;;;;;;;15.15;9.60;;;;;;;;;;5108479;28;20050;-65
2023/09/09 09:41:13;;;;;;;15.05;8.80;;;;;;;;;;5112500;27;20058;-65
2023/09/09 09:43:40;;;;;;;10.93;8.00;;;;;;;;;;5106019;28;20048;-65
2023/09/09 09:46:17;;;;;;;11.05;7.22;;;;;;;;;;5107543;28;20086;-65
2023/09/09 09:48:44;;;;;;;13.35;8.20;;;;;;;;;;5102359;28;20055;-66
2023/09/09 09:51:11;;;;;;;9.65;6.30;;;;;;;;;;5102381;28;20537;-65
2023/09/09 09:53:51;;;;;;;9.90;6.40;;;;;;;;;;5104524;27;20051;-66
2023/09/09 09:56:20;;;;;;;10.65;7.03;;;;;;;;;;5109259;27;20048;-66
2023/09/09 09:58:48;;;;;;;10.15;7.18;;;;;;;;;;5105645;27;20075;-65
2023/09/09 10:01:15;;;;;;;9.48;6.78;;;;;;;;;;5112458;27;20047;-65
2023/09/09 10:03:46;;;;;;;9.48;6.72;;;;;;;;;;5109704;27;20062;-65
2023/09/09 10:06:15;;;;;;;8.45;6.25;;;;;;;;;;5107085;27;20055;-66
2023/09/09 10:08:45;;;;;;;8.55;6.38;;;;;;;;;;5102714;28;20067;-65
2023/09/09 10:11:15;;;;;;;8.85;6.13;;;;;;;;;;5104385;27;20510;-66
2023/09/09 10:13:45;;;;;;;8.52;5.88;;;;;;;;;;5103474;28;20048;-65
2023/09/09 10:16:13;;;;;;;7.78;5.47;;;;;;;;;;5105946;28;20055;-65
2023/09/09 10:18:41;;;;;;;11.75;6.20;;;;;;;;;;5103556;27;20051;-65
2023/09/09 10:21:09;;;;;;;6.50;4.50;;;;;;;;;;5106029;27;20109;-65
2023/09/09 10:23:37;;;;;;;5.60;4.65;;;;;;;;;;5101605;27;20482;-65
2023/09/09 10:26:05;;;;;;;6.97;4.88;;;;;;;;;;5110626;27;20044;-65
2023/09/09 10:28:33;;;;;;;7.18;4.60;;;;;;;;;;5113933;27;20425;-66
2023/09/09 10:31:01;;;;;;;9.98;5.53;;;;;;;;;;5107847;27;20039;-65
2023/09/09 10:33:30;;;;;;;7.38;5.00;;;;;;;;;;5101773;28;20160;-65
2023/09/09 10:35:59;;;;;;;7.22;5.38;;;;;;;;;;5108407;28;20043;-66
2023/09/09 10:38:27;;;;;;;8.60;4.82;;;;;;;;;;5113294;27;20122;-65
2023/09/09 10:40:55;;;;;;;9.55;4.40;;;;;;;;;;5104884;28;20054;-65
2023/09/09 10:43:22;;;;;;;7.53;4.68;;;;;;;;;;5109756;27;20056;-66
2023/09/09 10:45:51;;;;;;;7.00;4.40;;;;;;;;;;5106065;27;20051;-65
2023/09/09 10:48:21;;;;;;;7.28;4.47;;;;;;;;;;5103433;27;20105;-66
2023/09/09 10:50:49;;;;;;;5.30;3.65;;;;;;;;;;5107821;27;20078;-66
2023/09/09 10:53:18;;;;;;;7.03;4.65;;;;;;;;;;5108334;28;20134;-65
2023/09/09 10:55:46;;;;;;;6.25;4.20;;;;;;;;;;5103706;27;20173;-65
2023/09/09 10:58:16;;;;;;;6.50;4.05;;;;;;;;;;5110810;28;20051;-65
2023/09/09 11:00:45;;;;;;;5.90;4.45;;;;;;;;;;5105205;28;20048;-65
2023/09/09 11:03:13;;;;;;;9.52;3.88;;;;;;;;;;5105343;28;20048;-64
2023/09/09 11:05:58;;;;;;;8.95;4.45;;;;;;;;;;5106866;27;20051;-65
2023/09/09 11:08:30;;;;;;;7.60;4.18;;;;;;;;;;5096912;27;20510;-65
2023/09/09 11:11:12;;;;;;;5.18;4.30;;;;;;;;;;5103327;28;20048;-66
2023/09/09 11:13:43;;;;;;;9.45;4.18;;;;;;;;;;5109548;27;20089;-65
2023/09/09 11:16:31;;;;;;;7.00;4.40;;;;;;;;;;5100811;28;20494;-65
2023/09/09 11:18:59;;;;;;;5.80;3.80;;;;;;;;;;5102783;28;20052;-65
2023/09/09 11:21:26;;;;;;;5.97;4.40;;;;;;;;;;5097232;28;20474;-65
2023/09/09 11:23:55;;;;;;;6.20;4.13;;;;;;;;;;5105307;28;20391;-65
2023/09/09 11:26:22;;;;;;;5.68;4.28;;;;;;;;;;5100980;28;20419;-65
2023/09/09 11:28:50;;;;;;;6.78;4.35;;;;;;;;;;5103885;28;20125;-65
2023/09/09 11:31:19;;;;;;;6.03;4.28;;;;;;;;;;5098833;28;20039;-66
2023/09/09 11:33:46;;;;;;;7.32;3.90;;;;;;;;;;5102429;27;20134;-66
2023/09/09 11:36:16;;;;;;;8.52;4.60;;;;;;;;;;5101582;28;20051;-65
2023/09/09 11:38:44;;;;;;;5.65;3.95;;;;;;;;;;5112543;27;20048;-65
2023/09/09 11:41:19;;;;;;;5.18;3.80;;;;;;;;;;5114125;27;20121;-66
2023/09/09 11:43:47;;;;;;;7.45;4.22;;;;;;;;;;5107745;28;20048;-66
2023/09/09 11:46:14;;;;;;;7.45;3.97;;;;;;;;;;5106068;28;20048;-66
2023/09/09 11:48:41;;;;;;;4.57;3.60;;;;;;;;;;5106630;27;20052;-66
2023/09/09 11:51:09;;;;;;;5.20;3.58;;;;;;;;;;5107599;27;20051;-65
2023/09/09 11:53:36;;;;;;;6.07;4.25;;;;;;;;;;5106696;28;20048;-66
2023/09/09 11:56:04;;;;;;;6.05;4.20;;;;;;;;;;5085503;27;20059;-66
2023/09/09 11:58:40;;;;;;;6.97;4.00;;;;;;;;;;5104824;27;20043;-66
2023/09/09 12:01:07;;;;;;;5.47;4.25;;;;;;;;;;5103170;28;20048;-66
2023/09/09 12:03:35;;;;;;;5.13;4.25;;;;;;;;;;5104569;28;20075;-66
2023/09/09 12:06:03;;;;;;;5.75;4.03;;;;;;;;;;5108176;28;20487;-66
2023/09/09 12:08:31;;;;;;;7.63;4.10;;;;;;;;;;5101779;27;20047;-66
2023/09/09 12:11:00;;;;;;;5.47;3.83;;;;;;;;;;5105387;28;20047;-66
2023/09/09 12:13:27;;;;;;;5.97;4.15;;;;;;;;;;5106034;28;20047;-67
2023/09/09 12:15:56;;;;;;;5.90;3.25;;;;;;;;;;5104877;28;20058;-66
2023/09/09 12:18:23;;;;;;;5.97;5.30;;;;;;;;;;5103908;28;20039;-67
2023/09/09 12:21:00;;;;;;;4.97;3.83;;;;;;;;;;5106178;28;20046;-66
2023/09/09 12:23:28;;;;;;;5.15;4.40;;;;;;;;;;5081727;28;20083;-67
2023/09/09 12:25:55;;;;;;;5.10;3.83;;;;;;;;;;5098754;27;20055;-66
2023/09/09 12:28:22;;;;;;;4.85;4.10;;;;;;;;;;5106446;28;20494;-66
2023/09/09 12:30:51;;;;;;;6.25;3.60;;;;;;;;;;5100436;28;20048;-66
2023/09/09 12:33:20;;;;;;;4.60;3.90;;;;;;;;;;5104921;28;20059;-66
2023/09/09 12:35:49;;;;;;;4.45;3.97;;;;;;;;;;5090370;28;20486;-67
2023/09/09 12:38:17;;;;;;;5.00;3.60;;;;;;;;;;5099229;28;20126;-66
2023/09/09 12:40:46;;;;;;;5.07;3.83;;;;;;;;;;5104852;28;20040;-66
2023/09/09 12:43:13;;;;;;;4.45;4.05;;;;;;;;;;5104516;28;20043;-66
2023/09/09 12:45:46;;;;;;;5.40;4.50;;;;;;;;;;5108611;28;20046;-66
2023/09/09 12:48:14;;;;;;;5.40;3.85;;;;;;;;;;5102547;28;20075;-66
2023/09/09 12:50:42;;;;;;;5.20;3.92;;;;;;;;;;5103126;28;20387;-66
2023/09/09 12:53:10;;;;;;;6.05;4.30;;;;;;;;;;5108052;28;20126;-66
2023/09/09 12:55:37;;;;;;;4.85;3.50;;;;;;;;;;5101333;28;20116;-67
2023/09/09 12:58:05;;;;;;;6.38;4.13;;;;;;;;;;5103083;28;20040;-66
2023/09/09 13:00:32;;;;;;;5.68;3.78;;;;;;;;;;5111729;27;20410;-66
2023/09/09 13:02:59;;;;;;;5.45;3.67;;;;;;;;;;5112249;27;20508;-67
2023/09/09 13:05:26;;;;;;;5.72;4.70;;;;;;;;;;5106405;28;20039;-67
2023/09/09 13:07:55;;;;;;;7.50;4.32;;;;;;;;;;5112678;27;20040;-66
2023/09/09 13:10:23;;;;;;;4.90;4.15;;;;;;;;;;5109288;27;20044;-66
2023/09/09 13:12:50;;;;;;;8.35;5.20;;;;;;;;;;5090470;28;20060;-67
2023/09/09 13:15:17;;;;;;;7.32;5.22;;;;;;;;;;5121203;27;20486;-66
2023/09/09 13:17:44;;;;;;;6.07;4.70;;;;;;;;;;5116057;27;20055;-67
2023/09/09 13:20:12;;;;;;;6.97;5.10;;;;;;;;;;5107128;28;21048;-66
2023/09/09 13:22:39;;;;;;;9.98;5.90;;;;;;;;;;5110083;28;20722;-66
2023/09/09 13:25:08;;;;;;;6.82;5.18;;;;;;;;;;5105725;27;20048;-66
2023/09/09 13:27:38;;;;;;;8.02;5.10;;;;;;;;;;5111374;28;20052;-67
2023/09/09 13:30:07;;;;;;;8.00;6.65;;;;;;;;;;5110608;28;20044;-66
2023/09/09 13:32:34;;;;;;;8.68;6.00;;;;;;;;;;5112677;27;20047;-67
2023/09/09 13:35:01;;;;;;;8.35;7.38;;;;;;;;;;5107990;28;20048;-67
2023/09/09 13:37:29;;;;;;;7.95;6.60;;;;;;;;;;5107383;28;20052;-66
2023/09/09 13:39:56;;;;;;;7.72;6.38;;;;;;;;;;5113516;27;20119;-66
2023/09/09 13:42:24;;;;;;;9.90;8.90;;;;;;;;;;5102240;28;20047;-67
2023/09/09 13:44:52;;;;;;;9.55;7.60;;;;;;;;;;5100478;28;20048;-66
2023/09/09 13:47:19;;;;;;;13.82;8.98;;;;;;;;;;5089856;28;20047;-66
2023/09/09 13:49:46;;;;;;;10.90;8.10;;;;;;;;;;5109154;28;20043;-67
2023/09/09 13:52:14;;;;;;;10.32;8.02;;;;;;;;;;5112500;28;20039;-67
2023/09/09 13:54:41;;;;;;;10.05;8.30;;;;;;;;;;5105075;27;20055;-67
2023/09/09 13:57:08;;;;;;;9.43;7.35;;;;;;;;;;5110147;27;20392;-66
2023/09/09 13:59:38;;;;;;;9.75;7.93;;;;;;;;;;5107987;27;20047;-66
2023/09/09 14:02:05;;;;;;;10.65;8.40;;;;;;;;;;5109935;27;20040;-66
2023/09/09 14:04:32;;;;;;;10.70;6.85;;;;;;;;;;5101593;27;20051;-67
2023/09/09 14:06:59;;;;;;;8.45;6.68;;;;;;;;;;5106393;28;20047;-67
2023/09/09 14:09:27;;;;;;;8.20;7.10;;;;;;;;;;5103315;27;20047;-66
2023/09/09 14:11:55;;;;;;;8.82;6.28;;;;;;;;;;5102725;28;20104;-67
2023/09/09 14:14:22;;;;;;;6.63;5.80;;;;;;;;;;5111126;27;20054;-67
2023/09/09 14:16:51;;;;;;;8.30;6.35;;;;;;;;;;5107528;27;20043;-66
2023/09/09 14:19:18;;;;;;;7.32;5.70;;;;;;;;;;5106339;27;20035;-67
2023/09/09 14:21:46;;;;;;;8.02;6.80;;;;;;;;;;5108436;27;20036;-66
2023/09/09 14:24:13;;;;;;;9.43;6.85;;;;;;;;;;5085523;28;20052;-67
2023/09/09 14:26:40;;;;;;;10.02;6.25;;;;;;;;;;5112137;28;20052;-67
2023/09/09 14:29:07;;;;;;;7.90;7.07;;;;;;;;;;5104264;28;20043;-67
2023/09/09 14:31:35;;;;;;;7.88;5.72;;;;;;;;;;5089679;28;20081;-67
2023/09/09 14:34:03;;;;;;;7.25;6.38;;;;;;;;;;5104164;28;20472;-67